createdAt,value
2018-09-12T00:01:29.295Z,5.33
2018-09-12T00:03:57.532Z,5.23
2018-09-12T00:06:25.706Z,4.60
2018-09-12T00:08:53.858Z,4.77
2018-09-12T00:11:22.006Z,6.37
2018-09-12T00:13:50.182Z,3.40
2018-09-12T00:16:18.447Z,4.87
2018-09-12T00:18:46.593Z,4.40
2018-09-12T00:21:14.933Z,4.10
2018-09-12T00:23:42.965Z,4.40
2018-09-12T00:26:11.098Z,7.10
2018-09-12T00:28:39.253Z,5.63
2018-09-12T00:31:07.413Z,3.53
2018-09-12T00:33:35.581Z,4.57
2018-09-12T00:36:03.738Z,5.03
2018-09-12T00:38:32.103Z,3.47
2018-09-12T00:41:00.261Z,4.80
2018-09-12T00:43:28.430Z,4.47
2018-09-12T00:45:56.704Z,4.03
2018-09-12T00:48:24.865Z,4.10
2018-09-12T00:50:53.105Z,4.00
2018-09-12T00:53:21.277Z,4.00
2018-09-12T00:55:49.419Z,4.23
2018-09-12T00:58:17.580Z,4.30
2018-09-12T01:00:45.741Z,5.30
2018-09-12T01:03:13.900Z,4.70
2018-09-12T01:05:42.910Z,3.87
2018-09-12T01:08:12.509Z,5.70
2018-09-12T01:10:40.646Z,4.03
2018-09-12T01:13:09.225Z,3.67
2018-09-12T01:15:37.688Z,4.23
2018-09-12T01:18:05.858Z,4.80
2018-09-12T01:20:34.541Z,3.60
2018-09-12T01:23:02.891Z,3.97
2018-09-12T01:25:31.197Z,5.20
2018-09-12T01:27:59.420Z,4.20
2018-09-12T01:30:28.215Z,3.53
2018-09-12T01:32:57.229Z,4.60
2018-09-12T01:35:25.416Z,4.50
2018-09-12T01:37:53.579Z,4.07
2018-09-12T01:40:21.748Z,4.70
2018-09-12T01:42:49.949Z,3.80
2018-09-12T01:45:19.255Z,4.50
2018-09-12T01:47:48.433Z,5.60
2018-09-12T01:50:16.604Z,4.00
2018-09-12T01:52:45.408Z,4.10
2018-09-12T01:55:13.617Z,3.43
2018-09-12T01:57:41.791Z,3.93
2018-09-12T02:00:14.328Z,3.97
2018-09-12T02:02:42.761Z,4.50
2018-09-12T02:05:10.910Z,4.57
2018-09-12T02:07:39.072Z,5.20
2018-09-12T02:10:09.187Z,4.73
2018-09-12T02:12:37.404Z,4.60
2018-09-12T02:15:05.809Z,4.50
2018-09-12T02:17:34.288Z,4.50
2018-09-12T02:20:02.701Z,4.27
2018-09-12T02:22:30.905Z,5.33
2018-09-12T02:24:59.050Z,5.30
2018-09-12T02:27:27.325Z,4.60
2018-09-12T02:29:55.521Z,3.90
2018-09-12T02:32:23.727Z,4.50
2018-09-12T02:34:52.622Z,4.07
2018-09-12T02:37:20.869Z,4.63
2018-09-12T02:39:49.005Z,5.20
2018-09-12T02:42:17.157Z,5.57
2018-09-12T02:44:45.479Z,4.33
2018-09-12T02:47:18.810Z,5.20
2018-09-12T02:49:46.971Z,3.90
2018-09-12T02:52:15.134Z,5.30
2018-09-12T02:54:43.363Z,5.10
2018-09-12T02:57:11.659Z,4.73
2018-09-12T02:59:39.851Z,4.70
2018-09-12T03:02:07.973Z,6.30
2018-09-12T03:04:36.247Z,4.60
2018-09-12T03:07:04.412Z,3.97
2018-09-12T03:09:32.560Z,5.00
2018-09-12T03:12:07.184Z,5.50
2018-09-12T03:14:35.471Z,4.40
2018-09-12T03:17:03.840Z,5.27
2018-09-12T03:19:32.007Z,4.47
2018-09-12T03:22:00.194Z,4.40
2018-09-12T03:24:28.384Z,5.90
2018-09-12T03:26:56.747Z,3.87
2018-09-12T03:29:24.914Z,4.30
2018-09-12T03:31:53.067Z,5.70
2018-09-12T03:34:21.497Z,5.27
2018-09-12T03:36:49.665Z,5.50
2018-09-12T03:39:17.810Z,3.80
2018-09-12T03:41:45.998Z,5.17
2018-09-12T03:44:14.155Z,4.70
2018-09-12T03:46:42.540Z,5.03
2018-09-12T03:49:11.432Z,4.90
2018-09-12T03:51:39.881Z,5.73
2018-09-12T03:54:08.095Z,4.00
2018-09-12T03:56:36.254Z,4.53
2018-09-12T03:59:04.604Z,4.87
2018-09-12T04:01:32.825Z,4.50
2018-09-12T04:04:01.131Z,4.90
2018-09-12T04:06:29.353Z,5.17
2018-09-12T04:08:58.061Z,5.63
2018-09-12T04:11:26.325Z,4.57
2018-09-12T04:13:54.529Z,4.13
2018-09-12T04:16:22.700Z,4.10
2018-09-12T04:18:50.896Z,4.40
2018-09-12T04:21:19.573Z,5.50
2018-09-12T04:23:47.835Z,4.07
2018-09-12T04:26:15.981Z,5.13
2018-09-12T04:28:44.449Z,5.77
2018-09-12T04:31:12.616Z,5.07
2018-09-12T04:33:40.896Z,6.00
2018-09-12T04:36:09.376Z,6.47
2018-09-12T04:38:37.759Z,4.77
2018-09-12T04:41:06.887Z,6.07
2018-09-12T04:43:35.074Z,4.63
2018-09-12T04:46:03.228Z,4.77
2018-09-12T04:48:31.409Z,5.40
2018-09-12T04:50:59.655Z,5.40
2018-09-12T04:53:27.807Z,5.80
2018-09-12T04:55:55.966Z,5.73
2018-09-12T04:58:24.112Z,4.93
2018-09-12T05:00:54.072Z,6.23
2018-09-12T05:03:23.338Z,5.83
2018-09-12T05:05:52.467Z,6.13
2018-09-12T05:08:20.643Z,5.10
2018-09-12T05:10:50.527Z,6.17
2018-09-12T05:13:19.427Z,5.70
2018-09-12T05:15:47.650Z,6.53
2018-09-12T05:18:16.094Z,6.80
2018-09-12T05:20:44.378Z,7.20
2018-09-12T05:23:12.519Z,6.10
2018-09-12T05:25:40.692Z,7.80
2018-09-12T05:28:08.865Z,11.63
2018-09-12T05:30:37.237Z,5.80
2018-09-12T05:33:05.416Z,6.50
2018-09-12T05:35:33.832Z,6.70
2018-09-12T05:38:02.381Z,6.40
2018-09-12T05:40:30.534Z,6.20
2018-09-12T05:42:58.702Z,6.63
2018-09-12T05:45:26.878Z,6.10
2018-09-12T05:47:55.065Z,7.00
2018-09-12T05:50:23.225Z,6.13
2018-09-12T05:52:51.439Z,7.83
2018-09-12T05:55:19.589Z,6.43
2018-09-12T05:57:47.728Z,6.73
2018-09-12T06:00:15.939Z,6.90
2018-09-12T06:02:44.096Z,7.00
2018-09-12T06:05:12.386Z,9.90
2018-09-12T06:07:40.548Z,8.33
2018-09-12T06:10:08.704Z,8.57
2018-09-12T06:12:36.852Z,9.83
2018-09-12T06:15:05.982Z,8.10
2018-09-12T06:17:34.135Z,5.73
2018-09-12T06:20:02.278Z,6.60
2018-09-12T06:22:30.580Z,7.70
2018-09-12T06:24:58.759Z,9.27
2018-09-12T06:27:26.937Z,9.97
2018-09-12T06:29:55.295Z,6.97
2018-09-12T06:32:23.500Z,6.30
2018-09-12T06:34:51.645Z,6.80
2018-09-12T06:37:19.832Z,6.67
2018-09-12T06:39:48.005Z,9.50
2018-09-12T06:42:16.198Z,8.00
2018-09-12T06:44:44.962Z,7.33
2018-09-12T06:47:13.124Z,7.37
2018-09-12T06:49:41.252Z,7.20
2018-09-12T06:52:09.544Z,6.93
2018-09-12T06:54:37.728Z,8.17
2018-09-12T06:57:05.880Z,8.13
2018-09-12T06:59:34.316Z,6.90
2018-09-12T07:02:02.481Z,7.30
2018-09-12T07:04:30.627Z,6.50
2018-09-12T07:06:58.884Z,6.67
2018-09-12T07:09:27.026Z,5.43
2018-09-12T07:11:55.212Z,5.97
2018-09-12T07:14:23.428Z,7.03
2018-09-12T07:16:51.554Z,7.23
2018-09-12T07:19:19.877Z,6.47
2018-09-12T07:21:48.026Z,8.23
2018-09-12T07:24:16.406Z,7.53
2018-09-12T07:26:44.585Z,6.40
2018-09-12T07:29:12.893Z,7.17
2018-09-12T07:31:41.119Z,10.37
2018-09-12T07:34:09.908Z,8.90
2018-09-12T07:36:38.142Z,6.93
2018-09-12T07:39:09.694Z,7.10
2018-09-12T07:41:38.281Z,6.47
2018-09-12T07:44:06.590Z,7.13
2018-09-12T07:46:35.760Z,7.23
2018-09-12T07:49:04.272Z,6.27
2018-09-12T07:51:32.435Z,7.33
2018-09-12T07:54:00.612Z,7.10
2018-09-12T07:56:28.882Z,5.40
2018-09-12T07:58:57.142Z,6.07
2018-09-12T08:01:25.648Z,6.93
2018-09-12T08:03:53.795Z,6.20
2018-09-12T08:06:22.140Z,5.50
2018-09-12T08:08:50.278Z,5.30
2018-09-12T08:11:18.432Z,4.23
2018-09-12T08:13:46.612Z,3.80
2018-09-12T08:16:14.809Z,4.23
2018-09-12T08:18:42.951Z,4.00
2018-09-12T08:21:11.798Z,3.70
2018-09-12T08:23:40.218Z,4.10
2018-09-12T08:26:08.881Z,4.43
2018-09-12T08:28:36.991Z,4.40
2018-09-12T08:31:05.243Z,4.03
2018-09-12T08:33:33.345Z,4.30
2018-09-12T08:36:01.545Z,3.30
2018-09-12T08:38:29.710Z,2.97
2018-09-12T08:40:57.854Z,4.53
2018-09-12T08:43:26.063Z,3.57
2018-09-12T08:45:54.265Z,3.20
2018-09-12T08:48:22.412Z,3.00
2018-09-12T08:50:51.402Z,3.50
2018-09-12T08:53:20.395Z,3.80
2018-09-12T08:55:49.234Z,3.77
2018-09-12T08:58:17.484Z,3.43
2018-09-12T09:00:45.697Z,4.23
2018-09-12T09:03:13.921Z,3.53
2018-09-12T09:05:42.070Z,3.90
2018-09-12T09:08:10.223Z,4.30
2018-09-12T09:10:38.415Z,4.27
2018-09-12T09:13:06.516Z,4.60
2018-09-12T09:15:36.898Z,6.13
2018-09-12T09:18:05.436Z,3.47
2018-09-12T09:20:33.702Z,4.50
2018-09-12T09:23:01.842Z,4.13
2018-09-12T09:25:30.009Z,4.70
2018-09-12T09:27:58.189Z,3.83
2018-09-12T09:30:28.934Z,5.00
2018-09-12T09:32:57.091Z,4.50
2018-09-12T09:35:25.369Z,4.73
2018-09-12T09:37:53.430Z,3.63
2018-09-12T09:40:21.769Z,4.30
2018-09-12T09:42:49.947Z,4.20
2018-09-12T09:45:18.161Z,4.80
2018-09-12T09:47:46.413Z,4.60
2018-09-12T09:50:14.495Z,4.70
2018-09-12T09:52:42.652Z,4.57
2018-09-12T09:55:11.268Z,4.43
2018-09-12T09:57:39.364Z,4.90
2018-09-12T10:00:14.440Z,4.77
2018-09-12T10:02:46.840Z,4.10
2018-09-12T10:05:20.337Z,4.13
2018-09-12T10:07:52.836Z,4.67
2018-09-12T10:10:20.996Z,5.20
2018-09-12T10:12:49.160Z,4.90
2018-09-12T10:15:17.360Z,4.60
2018-09-12T10:17:45.553Z,5.27
2018-09-12T10:20:13.779Z,4.97
2018-09-12T10:22:41.909Z,4.60
2018-09-12T10:25:10.074Z,5.33
2018-09-12T10:27:38.251Z,3.83
2018-09-12T10:30:13.033Z,4.07
2018-09-12T10:32:41.312Z,4.40
2018-09-12T10:35:09.828Z,4.40
2018-09-12T10:37:37.977Z,4.87
2018-09-12T10:40:06.189Z,4.50
2018-09-12T10:42:34.346Z,4.93
2018-09-12T10:45:02.578Z,5.20
2018-09-12T10:47:30.785Z,4.70
2018-09-12T10:49:59.240Z,5.50
2018-09-12T10:52:27.413Z,4.03
2018-09-12T10:54:55.610Z,3.87
2018-09-12T10:57:23.789Z,4.50
2018-09-12T10:59:51.944Z,4.90
2018-09-12T11:02:20.141Z,4.23
2018-09-12T11:04:48.304Z,4.20
2018-09-12T11:07:16.448Z,5.07
2018-09-12T11:09:44.672Z,4.70
2018-09-12T11:12:12.759Z,4.70
2018-09-12T11:14:40.902Z,4.07
2018-09-12T11:17:09.080Z,4.30
2018-09-12T11:19:37.245Z,5.70
2018-09-12T11:22:05.446Z,10.50
2018-09-12T11:24:33.665Z,4.70
2018-09-12T11:27:01.866Z,5.87
2018-09-12T11:29:30.013Z,5.20
2018-09-12T11:31:58.175Z,6.27
2018-09-12T11:34:26.336Z,4.30
2018-09-12T11:36:54.488Z,5.37
2018-09-12T11:39:22.665Z,5.33
2018-09-12T11:41:50.858Z,4.80
2018-09-12T11:44:18.980Z,4.57
2018-09-12T11:46:47.154Z,4.87
2018-09-12T11:49:15.364Z,6.27
2018-09-12T11:51:43.475Z,6.07
2018-09-12T11:54:11.852Z,5.57
2018-09-12T11:56:39.989Z,7.10
2018-09-12T11:59:08.231Z,5.13
2018-09-12T12:01:36.432Z,4.43
2018-09-12T12:04:04.570Z,5.00
2018-09-12T12:06:32.753Z,5.20
2018-09-12T12:09:00.903Z,6.50
2018-09-12T12:11:29.051Z,5.50
2018-09-12T12:13:57.270Z,7.07
2018-09-12T12:16:25.432Z,5.90
2018-09-12T12:18:53.592Z,5.40
2018-09-12T12:21:21.744Z,5.73
2018-09-12T12:23:49.893Z,7.80
2018-09-12T12:26:18.061Z,5.97
2018-09-12T12:28:46.355Z,6.63
2018-09-12T12:31:14.496Z,5.67
2018-09-12T12:33:42.640Z,6.63
2018-09-12T12:36:11.397Z,6.50
2018-09-12T12:38:39.541Z,4.40
2018-09-12T12:41:07.689Z,5.17
2018-09-12T12:43:35.845Z,4.90
2018-09-12T12:46:03.992Z,5.67
2018-09-12T12:48:32.171Z,5.30
2018-09-12T12:51:00.345Z,5.40
2018-09-12T12:53:28.612Z,4.73
2018-09-12T12:55:57.088Z,4.73
2018-09-12T12:58:25.365Z,4.60
2018-09-12T13:00:53.779Z,5.72
2018-09-12T13:03:22.123Z,5.17
2018-09-12T13:05:50.301Z,4.80
2018-09-12T13:08:18.448Z,5.60
2018-09-12T13:10:46.689Z,4.40
2018-09-12T13:13:14.873Z,4.03
2018-09-12T13:15:43.062Z,4.47
2018-09-12T13:18:11.214Z,4.87
2018-09-12T13:20:39.417Z,5.40
2018-09-12T13:23:07.606Z,4.90
2018-09-12T13:25:35.820Z,4.83
2018-09-12T13:28:04.021Z,4.50
2018-09-12T13:30:32.161Z,5.13
2018-09-12T13:33:00.334Z,4.33
2018-09-12T13:35:28.488Z,4.93
2018-09-12T13:37:56.621Z,5.80
2018-09-12T13:40:24.960Z,6.70
2018-09-12T13:42:53.641Z,5.77
2018-09-12T13:45:21.784Z,5.07
2018-09-12T13:47:49.949Z,5.10
2018-09-12T13:50:18.132Z,5.40
2018-09-12T13:52:47.076Z,4.90
2018-09-12T13:55:15.334Z,5.07
2018-09-12T13:57:43.847Z,5.80
2018-09-12T14:00:12.060Z,6.03
2018-09-12T14:02:40.220Z,6.10
2018-09-12T14:05:08.385Z,6.00
2018-09-12T14:07:36.728Z,5.97
2018-09-12T14:10:05.229Z,6.10
2018-09-12T14:12:33.389Z,5.57
2018-09-12T14:15:01.560Z,5.77
2018-09-12T14:17:30.007Z,6.07
2018-09-12T14:19:58.156Z,7.10
2018-09-12T14:22:26.458Z,7.10
2018-09-12T14:24:54.660Z,7.17
2018-09-12T14:27:22.783Z,6.80
2018-09-12T14:29:51.011Z,7.20
2018-09-12T14:32:19.279Z,6.70
2018-09-12T14:34:47.554Z,6.63
2018-09-12T14:37:15.722Z,8.93
2018-09-12T14:39:43.921Z,7.93
2018-09-12T14:42:12.076Z,8.77
2018-09-12T14:44:40.216Z,9.73
2018-09-12T14:47:08.449Z,8.50
2018-09-12T14:49:36.618Z,8.87
2018-09-12T14:52:04.787Z,10.73
2018-09-12T14:54:33.084Z,11.80
2018-09-12T14:57:01.241Z,11.70
2018-09-12T14:59:29.418Z,12.40
2018-09-12T15:01:57.589Z,11.33
2018-09-12T15:04:25.779Z,11.53
2018-09-12T15:06:53.943Z,10.43
2018-09-12T15:09:22.124Z,11.17
2018-09-12T15:11:50.276Z,12.00
2018-09-12T15:14:18.525Z,12.00
2018-09-12T15:16:46.697Z,11.40
2018-09-12T15:19:14.860Z,10.40
2018-09-12T15:21:43.093Z,12.23
2018-09-12T15:24:11.269Z,12.33
2018-09-12T15:26:39.422Z,12.07
2018-09-12T15:29:07.900Z,14.30
2018-09-12T15:31:36.037Z,13.17
2018-09-12T15:34:04.194Z,14.60
2018-09-12T15:36:32.380Z,13.60
2018-09-12T15:39:00.520Z,15.07
2018-09-12T15:41:28.942Z,14.20
2018-09-12T15:43:57.033Z,14.70
2018-09-12T15:46:25.177Z,14.00
2018-09-12T15:48:55.067Z,16.00
2018-09-12T15:51:23.350Z,16.30
2018-09-12T15:53:51.494Z,19.00
2018-09-12T15:56:19.661Z,19.33
2018-09-12T15:58:47.833Z,24.90
2018-09-12T16:01:15.992Z,20.60
2018-09-12T16:03:50.751Z,25.60
2018-09-12T16:06:18.897Z,24.50
2018-09-12T16:08:47.249Z,23.63
2018-09-12T16:11:15.429Z,22.93
2018-09-12T16:13:43.601Z,24.37
2018-09-12T16:16:11.767Z,21.33
2018-09-12T16:18:39.959Z,22.03
2018-09-12T16:21:08.482Z,19.70
2018-09-12T16:23:36.829Z,21.70
2018-09-12T16:26:05.313Z,23.10
2018-09-12T16:28:33.896Z,22.40
2018-09-12T16:31:02.084Z,19.73
2018-09-12T16:33:30.342Z,21.50
2018-09-12T16:35:58.800Z,21.27
2018-09-12T16:38:26.998Z,25.03
2018-09-12T16:40:55.349Z,26.47
2018-09-12T16:43:24.438Z,27.20
2018-09-12T16:45:52.773Z,28.70
2018-09-12T16:48:21.772Z,28.80
2018-09-12T16:50:49.988Z,28.20
2018-09-12T16:53:18.799Z,28.50
2018-09-12T16:55:46.978Z,28.00
2018-09-12T16:58:15.157Z,31.03
2018-09-12T17:00:43.425Z,28.17
2018-09-12T17:03:11.575Z,30.67
2018-09-12T17:05:40.042Z,33.73
2018-09-12T17:08:08.224Z,33.67
2018-09-12T17:10:36.705Z,34.93
2018-09-12T17:13:04.879Z,34.20
2018-09-12T17:15:33.191Z,34.17
2018-09-12T17:18:01.493Z,34.43
2018-09-12T17:20:29.647Z,29.83
2018-09-12T17:22:57.822Z,28.07
2018-09-12T17:25:26.005Z,30.63
2018-09-12T17:27:54.184Z,27.73
2018-09-12T17:30:22.378Z,25.37
2018-09-12T17:32:50.562Z,24.43
2018-09-12T17:35:18.738Z,24.60
2018-09-12T17:37:46.921Z,18.77
2018-09-12T17:40:15.122Z,16.73
2018-09-12T17:42:43.264Z,17.93
2018-09-12T17:45:11.741Z,16.00
2018-09-12T17:47:39.939Z,13.13
2018-09-12T17:50:08.241Z,12.97
2018-09-12T17:52:36.569Z,12.50
2018-09-12T17:55:04.940Z,11.13
2018-09-12T17:57:33.096Z,9.63
2018-09-12T18:00:01.303Z,8.47
2018-09-12T18:02:30.263Z,7.50
2018-09-12T18:04:58.467Z,7.60
2018-09-12T18:07:26.916Z,6.33
2018-09-12T18:09:55.331Z,7.00
2018-09-12T18:12:23.864Z,5.40
2018-09-12T18:14:52.006Z,5.57
2018-09-12T18:17:20.204Z,5.57
2018-09-12T18:19:48.864Z,7.00
2018-09-12T18:22:17.045Z,4.90
2018-09-12T18:24:46.195Z,4.27
2018-09-12T18:27:14.300Z,4.67
2018-09-12T18:29:42.456Z,4.37
2018-09-12T18:32:10.627Z,3.80
2018-09-12T18:34:38.772Z,4.90
2018-09-12T18:37:07.170Z,4.50
2018-09-12T18:39:35.378Z,3.33
2018-09-12T18:42:03.989Z,4.20
2018-09-12T18:44:32.377Z,3.17
2018-09-12T18:47:01.143Z,3.33
2018-09-12T18:49:29.720Z,2.90
2018-09-12T18:51:58.019Z,2.87
2018-09-12T18:54:26.176Z,2.70
2018-09-12T18:56:54.369Z,1.97
2018-09-12T18:59:22.568Z,2.30
2018-09-12T19:01:51.336Z,2.20
2018-09-12T19:04:21.163Z,2.50
2018-09-12T19:06:49.381Z,2.50
2018-09-12T19:09:17.738Z,2.80
2018-09-12T19:11:47.093Z,2.03
2018-09-12T19:14:15.274Z,2.13
2018-09-12T19:16:43.625Z,2.37
2018-09-12T19:19:11.843Z,2.02
2018-09-12T19:21:40.299Z,2.27
2018-09-12T19:24:08.676Z,2.50
2018-09-12T19:26:36.932Z,2.20
2018-09-12T19:29:05.099Z,2.07
2018-09-12T19:31:33.298Z,2.20
2018-09-12T19:34:01.578Z,3.03
2018-09-12T19:36:29.771Z,2.53
2018-09-12T19:38:57.944Z,2.90
2018-09-12T19:41:26.085Z,3.30
2018-09-12T19:43:54.293Z,2.53
2018-09-12T19:46:22.465Z,4.13
2018-09-12T19:48:50.631Z,3.80
2018-09-12T19:51:18.842Z,3.33
2018-09-12T19:53:47.029Z,3.20
2018-09-12T19:56:15.753Z,3.33
2018-09-12T19:58:44.629Z,3.07
2018-09-12T20:01:12.804Z,3.27
2018-09-12T20:03:40.939Z,3.17
2018-09-12T20:06:09.110Z,3.20
2018-09-12T20:08:37.293Z,4.30
2018-09-12T20:11:05.612Z,5.30
2018-09-12T20:13:33.763Z,5.40
2018-09-12T20:16:01.998Z,5.20
2018-09-12T20:18:30.119Z,5.77
2018-09-12T20:20:58.361Z,6.07
2018-09-12T20:23:26.546Z,7.00
2018-09-12T20:25:54.716Z,6.90
2018-09-12T20:28:22.945Z,8.50
2018-09-12T20:30:51.096Z,6.80
2018-09-12T20:33:19.397Z,7.20
2018-09-12T20:35:47.629Z,7.37
2018-09-12T20:38:15.825Z,7.90
2018-09-12T20:40:44.132Z,5.80
2018-09-12T20:43:12.284Z,7.60
2018-09-12T20:45:40.448Z,8.77
2018-09-12T20:48:08.844Z,7.63
2018-09-12T20:50:37.063Z,7.70
2018-09-12T20:53:05.182Z,7.67
2018-09-12T20:55:33.364Z,8.80
2018-09-12T20:58:01.533Z,9.00
2018-09-12T21:00:29.698Z,9.57
2018-09-12T21:02:57.876Z,8.43
2018-09-12T21:05:26.036Z,10.40
2018-09-12T21:07:54.225Z,9.37
2018-09-12T21:10:22.412Z,9.73
2018-09-12T21:12:50.609Z,10.40
2018-09-12T21:15:18.760Z,10.10
2018-09-12T21:17:46.929Z,9.90
2018-09-12T21:20:15.070Z,11.03
2018-09-12T21:22:43.228Z,11.53
2018-09-12T21:25:11.385Z,10.67
2018-09-12T21:27:39.520Z,11.17
2018-09-12T21:30:07.821Z,10.83
2018-09-12T21:32:35.983Z,11.97
2018-09-12T21:35:04.139Z,8.80
2018-09-12T21:37:32.328Z,8.07
2018-09-12T21:40:00.479Z,8.17
2018-09-12T21:42:28.649Z,7.70
2018-09-12T21:44:58.036Z,10.57
2018-09-12T21:47:26.173Z,10.33
2018-09-12T21:49:54.341Z,9.23
2018-09-12T21:52:22.724Z,10.40
2018-09-12T21:54:50.917Z,11.50
2018-09-12T21:57:19.056Z,11.77
2018-09-12T21:59:47.221Z,12.30
2018-09-12T22:02:15.406Z,11.30
2018-09-12T22:04:43.557Z,12.90
2018-09-12T22:07:11.707Z,13.40
2018-09-12T22:09:39.881Z,13.80
2018-09-12T22:12:08.164Z,14.07
2018-09-12T22:14:36.349Z,12.77
2018-09-12T22:17:04.536Z,13.43
2018-09-12T22:19:32.681Z,13.10
2018-09-12T22:22:00.844Z,13.20
2018-09-12T22:24:29.019Z,13.43
2018-09-12T22:26:57.199Z,17.43
2018-09-12T22:29:25.624Z,14.87
2018-09-12T22:31:53.770Z,15.00
2018-09-12T22:34:21.936Z,13.93
2018-09-12T22:36:51.034Z,13.67
2018-09-12T22:39:19.187Z,13.80
2018-09-12T22:41:47.400Z,14.10
2018-09-12T22:44:15.574Z,13.97
2018-09-12T22:46:43.729Z,13.70
2018-09-12T22:49:11.864Z,13.47
2018-09-12T22:51:40.025Z,15.63
2018-09-12T22:54:08.210Z,13.57
2018-09-12T22:56:36.378Z,12.73
2018-09-12T22:59:04.540Z,11.20
2018-09-12T23:01:32.685Z,12.30
2018-09-12T23:04:00.848Z,11.77
2018-09-12T23:06:29.037Z,9.87
2018-09-12T23:08:57.157Z,10.77
2018-09-12T23:11:25.338Z,11.13
2018-09-12T23:13:53.470Z,11.00
2018-09-12T23:16:21.692Z,11.40
2018-09-12T23:18:51.766Z,11.07
2018-09-12T23:21:20.353Z,12.83
2018-09-12T23:23:48.623Z,11.80
2018-09-12T23:26:17.061Z,11.00
2018-09-12T23:28:45.228Z,11.63
2018-09-12T23:31:13.505Z,12.30
2018-09-12T23:33:41.688Z,11.00
2018-09-12T23:36:09.848Z,11.83
2018-09-12T23:38:38.000Z,12.43
2018-09-12T23:41:06.426Z,11.30
2018-09-12T23:43:35.119Z,12.77
2018-09-12T23:46:03.264Z,12.53
2018-09-12T23:48:31.461Z,12.17
2018-09-12T23:50:59.609Z,10.60
2018-09-12T23:53:35.164Z,12.67
2018-09-12T23:56:03.533Z,12.30
2018-09-12T23:58:31.668Z,12.63
